Beaconsfield, Canada
Current Conditions -  °F | °C
As of 10:00 PM on Monday 26 Jan 2015 (Local Time) from CYUL Reporting Station
Scattered Clouds Scattered Clouds  
Wind Chill: -19°   Ceiling: Unl
Heat Index:   Visibility: 15mi
Dew Point: -8°   Wind: 17mph
Humidity: 66%   Direction: 30°NNE
Pressure: 30.2"   Gusts: NA
Location:  45.43°N, 73.83°W
Report Text: CYUL 270300Z 03015KT 15SM FEW150 SCT240 M17/M22 A3020 RMK AC1CI4 AC TR SLP229
Loading
Personal Weather Stations






























Interactive Weather Map New forecast layout! Learn more

10-Day Weather Forecast

Advertisements
Track Severe Weather on mobile